sensor_id;sensor_type;location;lat;lon;timestamp;P1;durP1;ratioP1;P2;durP2;ratioP2
55290;SDS011;41155;39.768;2.712;2023-05-07T00:02:20;10.55;;;4.50;;
55290;SDS011;41155;39.768;2.712;2023-05-07T00:04:46;5.63;;;4.90;;
55290;SDS011;41155;39.768;2.712;2023-05-07T00:07:11;9.02;;;4.70;;
55290;SDS011;41155;39.768;2.712;2023-05-07T00:09:37;14.82;;;4.38;;
55290;SDS011;41155;39.768;2.712;2023-05-07T00:12:02;6.05;;;4.25;;
55290;SDS011;41155;39.768;2.712;2023-05-07T00:14:28;4.75;;;3.95;;
55290;SDS011;41155;39.768;2.712;2023-05-07T00:16:53;8.60;;;4.20;;
55290;SDS011;41155;39.768;2.712;2023-05-07T00:19:19;5.68;;;4.05;;
55290;SDS011;41155;39.768;2.712;2023-05-07T00:21:44;5.15;;;4.20;;
55290;SDS011;41155;39.768;2.712;2023-05-07T00:24:10;7.90;;;3.80;;
55290;SDS011;41155;39.768;2.712;2023-05-07T00:26:35;3.97;;;3.40;;
55290;SDS011;41155;39.768;2.712;2023-05-07T00:29:01;8.13;;;3.65;;
55290;SDS011;41155;39.768;2.712;2023-05-07T00:31:26;8.13;;;4.68;;
55290;SDS011;41155;39.768;2.712;2023-05-07T00:33:51;8.90;;;3.67;;
55290;SDS011;41155;39.768;2.712;2023-05-07T00:36:17;7.05;;;3.70;;
55290;SDS011;41155;39.768;2.712;2023-05-07T00:38:42;5.10;;;3.90;;
55290;SDS011;41155;39.768;2.712;2023-05-07T00:41:08;9.70;;;4.15;;
55290;SDS011;41155;39.768;2.712;2023-05-07T00:43:33;8.35;;;3.40;;
55290;SDS011;41155;39.768;2.712;2023-05-07T00:45:59;5.65;;;4.15;;
55290;SDS011;41155;39.768;2.712;2023-05-07T00:48:24;14.15;;;3.53;;
55290;SDS011;41155;39.768;2.712;2023-05-07T00:50:50;4.03;;;3.53;;
55290;SDS011;41155;39.768;2.712;2023-05-07T00:53:16;6.43;;;3.38;;
55290;SDS011;41155;39.768;2.712;2023-05-07T00:55:42;5.60;;;3.72;;
55290;SDS011;41155;39.768;2.712;2023-05-07T00:58:07;5.32;;;3.55;;
55290;SDS011;41155;39.768;2.712;2023-05-07T01:00:33;3.70;;;3.40;;
55290;SDS011;41155;39.768;2.712;2023-05-07T01:02:59;5.93;;;3.67;;
55290;SDS011;41155;39.768;2.712;2023-05-07T01:05:24;6.97;;;3.60;;
55290;SDS011;41155;39.768;2.712;2023-05-07T01:07:52;5.45;;;4.13;;
55290;SDS011;41155;39.768;2.712;2023-05-07T01:10:22;5.90;;;3.50;;
55290;SDS011;41155;39.768;2.712;2023-05-07T01:12:49;15.48;;;4.43;;
55290;SDS011;41155;39.768;2.712;2023-05-07T01:15:16;11.10;;;4.32;;
55290;SDS011;41155;39.768;2.712;2023-05-07T01:17:42;5.10;;;4.05;;
55290;SDS011;41155;39.768;2.712;2023-05-07T01:20:08;7.90;;;3.70;;
55290;SDS011;41155;39.768;2.712;2023-05-07T01:22:37;5.55;;;3.50;;
55290;SDS011;41155;39.768;2.712;2023-05-07T01:25:06;6.93;;;4.22;;
55290;SDS011;41155;39.768;2.712;2023-05-07T01:27:33;4.97;;;4.25;;
55290;SDS011;41155;39.768;2.712;2023-05-07T01:30:00;8.50;;;4.20;;
55290;SDS011;41155;39.768;2.712;2023-05-07T01:32:35;5.32;;;3.75;;
55290;SDS011;41155;39.768;2.712;2023-05-07T01:35:07;5.75;;;4.63;;
55290;SDS011;41155;39.768;2.712;2023-05-07T01:37:36;12.70;;;3.90;;
55290;SDS011;41155;39.768;2.712;2023-05-07T01:40:03;9.35;;;4.25;;
55290;SDS011;41155;39.768;2.712;2023-05-07T01:42:29;5.38;;;3.90;;
55290;SDS011;41155;39.768;2.712;2023-05-07T01:44:56;6.10;;;3.92;;
55290;SDS011;41155;39.768;2.712;2023-05-07T01:47:22;7.18;;;4.55;;
55290;SDS011;41155;39.768;2.712;2023-05-07T01:49:48;8.30;;;4.70;;
55290;SDS011;41155;39.768;2.712;2023-05-07T01:52:13;11.13;;;5.22;;
55290;SDS011;41155;39.768;2.712;2023-05-07T01:54:39;10.00;;;4.80;;
55290;SDS011;41155;39.768;2.712;2023-05-07T01:57:04;9.70;;;5.25;;
55290;SDS011;41155;39.768;2.712;2023-05-07T01:59:30;8.23;;;4.55;;
55290;SDS011;41155;39.768;2.712;2023-05-07T02:01:56;5.50;;;4.43;;
55290;SDS011;41155;39.768;2.712;2023-05-07T02:04:21;6.28;;;4.65;;
55290;SDS011;41155;39.768;2.712;2023-05-07T02:06:46;9.23;;;5.50;;
55290;SDS011;41155;39.768;2.712;2023-05-07T02:09:12;6.50;;;4.50;;
55290;SDS011;41155;39.768;2.712;2023-05-07T02:11:39;5.05;;;4.38;;
55290;SDS011;41155;39.768;2.712;2023-05-07T02:14:05;6.13;;;4.25;;
55290;SDS011;41155;39.768;2.712;2023-05-07T02:16:30;18.98;;;5.22;;
55290;SDS011;41155;39.768;2.712;2023-05-07T02:18:56;11.48;;;4.60;;
55290;SDS011;41155;39.768;2.712;2023-05-07T02:21:23;5.80;;;4.40;;
55290;SDS011;41155;39.768;2.712;2023-05-07T02:23:48;14.43;;;4.72;;
55290;SDS011;41155;39.768;2.712;2023-05-07T02:26:14;9.43;;;5.40;;
55290;SDS011;41155;39.768;2.712;2023-05-07T02:28:39;10.07;;;4.38;;
55290;SDS011;41155;39.768;2.712;2023-05-07T02:31:05;9.75;;;4.95;;
55290;SDS011;41155;39.768;2.712;2023-05-07T02:33:30;5.82;;;4.13;;
55290;SDS011;41155;39.768;2.712;2023-05-07T02:35:56;8.60;;;5.05;;
55290;SDS011;41155;39.768;2.712;2023-05-07T02:38:22;7.65;;;4.88;;
55290;SDS011;41155;39.768;2.712;2023-05-07T02:40:48;7.40;;;4.35;;
55290;SDS011;41155;39.768;2.712;2023-05-07T02:43:14;10.73;;;5.35;;
55290;SDS011;41155;39.768;2.712;2023-05-07T02:45:39;6.78;;;4.50;;
55290;SDS011;41155;39.768;2.712;2023-05-07T02:48:05;6.03;;;4.65;;
55290;SDS011;41155;39.768;2.712;2023-05-07T02:50:33;6.85;;;4.65;;
55290;SDS011;41155;39.768;2.712;2023-05-07T02:52:58;10.27;;;4.70;;
55290;SDS011;41155;39.768;2.712;2023-05-07T02:55:24;11.05;;;4.50;;
55290;SDS011;41155;39.768;2.712;2023-05-07T02:57:50;11.23;;;4.93;;
55290;SDS011;41155;39.768;2.712;2023-05-07T03:00:16;8.40;;;4.60;;
55290;SDS011;41155;39.768;2.712;2023-05-07T03:02:44;12.07;;;4.85;;
55290;SDS011;41155;39.768;2.712;2023-05-07T03:05:10;9.90;;;5.05;;
55290;SDS011;41155;39.768;2.712;2023-05-07T03:07:36;7.75;;;4.88;;
55290;SDS011;41155;39.768;2.712;2023-05-07T03:10:03;8.95;;;5.10;;
55290;SDS011;41155;39.768;2.712;2023-05-07T03:12:29;10.48;;;4.63;;
55290;SDS011;41155;39.768;2.712;2023-05-07T03:14:54;16.00;;;4.95;;
55290;SDS011;41155;39.768;2.712;2023-05-07T03:17:20;7.88;;;4.93;;
55290;SDS011;41155;39.768;2.712;2023-05-07T03:19:46;5.00;;;4.60;;
55290;SDS011;41155;39.768;2.712;2023-05-07T03:22:11;7.57;;;5.05;;
55290;SDS011;41155;39.768;2.712;2023-05-07T03:24:36;7.50;;;4.65;;
55290;SDS011;41155;39.768;2.712;2023-05-07T03:27:02;6.95;;;4.82;;
55290;SDS011;41155;39.768;2.712;2023-05-07T03:29:28;9.82;;;4.47;;
55290;SDS011;41155;39.768;2.712;2023-05-07T03:31:53;11.15;;;4.85;;
55290;SDS011;41155;39.768;2.712;2023-05-07T03:34:19;9.23;;;4.65;;
55290;SDS011;41155;39.768;2.712;2023-05-07T03:36:48;9.00;;;3.90;;
55290;SDS011;41155;39.768;2.712;2023-05-07T03:39:13;5.10;;;4.20;;
55290;SDS011;41155;39.768;2.712;2023-05-07T03:41:39;6.65;;;4.20;;
55290;SDS011;41155;39.768;2.712;2023-05-07T03:44:05;8.82;;;4.88;;
55290;SDS011;41155;39.768;2.712;2023-05-07T03:46:30;7.68;;;4.50;;
55290;SDS011;41155;39.768;2.712;2023-05-07T03:48:57;6.85;;;4.55;;
55290;SDS011;41155;39.768;2.712;2023-05-07T03:51:23;6.15;;;4.43;;
55290;SDS011;41155;39.768;2.712;2023-05-07T03:53:48;6.20;;;4.50;;
55290;SDS011;41155;39.768;2.712;2023-05-07T03:56:17;11.38;;;4.70;;
55290;SDS011;41155;39.768;2.712;2023-05-07T03:58:43;6.70;;;4.43;;
55290;SDS011;41155;39.768;2.712;2023-05-07T04:01:09;6.28;;;4.47;;
55290;SDS011;41155;39.768;2.712;2023-05-07T04:03:34;7.10;;;4.47;;
55290;SDS011;41155;39.768;2.712;2023-05-07T04:06:00;5.07;;;4.30;;
55290;SDS011;41155;39.768;2.712;2023-05-07T04:08:25;8.45;;;4.75;;
55290;SDS011;41155;39.768;2.712;2023-05-07T04:10:54;5.00;;;4.50;;
55290;SDS011;41155;39.768;2.712;2023-05-07T04:13:20;14.07;;;5.05;;
55290;SDS011;41155;39.768;2.712;2023-05-07T04:15:46;6.75;;;4.45;;
55290;SDS011;41155;39.768;2.712;2023-05-07T04:18:11;8.35;;;4.70;;
55290;SDS011;41155;39.768;2.712;2023-05-07T04:20:37;13.85;;;4.80;;
55290;SDS011;41155;39.768;2.712;2023-05-07T04:23:02;9.63;;;5.28;;
55290;SDS011;41155;39.768;2.712;2023-05-07T04:25:27;6.93;;;4.95;;
55290;SDS011;41155;39.768;2.712;2023-05-07T04:27:53;10.00;;;4.65;;
55290;SDS011;41155;39.768;2.712;2023-05-07T04:30:19;9.25;;;4.90;;
55290;SDS011;41155;39.768;2.712;2023-05-07T04:32:47;12.52;;;4.95;;
55290;SDS011;41155;39.768;2.712;2023-05-07T04:35:13;8.27;;;5.00;;
55290;SDS011;41155;39.768;2.712;2023-05-07T04:37:39;8.25;;;4.85;;
55290;SDS011;41155;39.768;2.712;2023-05-07T04:40:05;4.90;;;4.38;;
55290;SDS011;41155;39.768;2.712;2023-05-07T04:42:31;7.57;;;4.50;;
55290;SDS011;41155;39.768;2.712;2023-05-07T04:44:57;6.70;;;4.55;;
55290;SDS011;41155;39.768;2.712;2023-05-07T04:47:22;11.13;;;5.47;;
55290;SDS011;41155;39.768;2.712;2023-05-07T04:49:48;6.03;;;5.10;;
55290;SDS011;41155;39.768;2.712;2023-05-07T04:52:13;4.97;;;4.60;;
55290;SDS011;41155;39.768;2.712;2023-05-07T04:54:39;6.68;;;5.10;;
55290;SDS011;41155;39.768;2.712;2023-05-07T04:57:04;15.85;;;5.90;;
55290;SDS011;41155;39.768;2.712;2023-05-07T04:59:30;8.27;;;5.50;;
55290;SDS011;41155;39.768;2.712;2023-05-07T05:01:55;7.88;;;5.60;;
55290;SDS011;41155;39.768;2.712;2023-05-07T05:04:21;10.05;;;4.90;;
55290;SDS011;41155;39.768;2.712;2023-05-07T05:06:46;10.00;;;5.05;;
55290;SDS011;41155;39.768;2.712;2023-05-07T05:09:11;7.38;;;4.80;;
55290;SDS011;41155;39.768;2.712;2023-05-07T05:11:37;5.78;;;4.70;;
55290;SDS011;41155;39.768;2.712;2023-05-07T05:14:03;8.57;;;5.25;;
55290;SDS011;41155;39.768;2.712;2023-05-07T05:16:29;6.05;;;5.15;;
55290;SDS011;41155;39.768;2.712;2023-05-07T05:18:54;4.85;;;4.40;;
55290;SDS011;41155;39.768;2.712;2023-05-07T05:21:20;5.68;;;4.28;;
55290;SDS011;41155;39.768;2.712;2023-05-07T05:23:46;15.20;;;6.60;;
55290;SDS011;41155;39.768;2.712;2023-05-07T05:26:12;29.75;;;21.80;;
55290;SDS011;41155;39.768;2.712;2023-05-07T05:28:37;29.60;;;22.65;;
55290;SDS011;41155;39.768;2.712;2023-05-07T05:31:03;24.35;;;16.25;;
55290;SDS011;41155;39.768;2.712;2023-05-07T05:33:29;13.48;;;12.15;;
55290;SDS011;41155;39.768;2.712;2023-05-07T05:35:55;16.05;;;8.60;;
55290;SDS011;41155;39.768;2.712;2023-05-07T05:38:20;17.42;;;8.85;;
55290;SDS011;41155;39.768;2.712;2023-05-07T05:40:46;23.40;;;7.00;;
55290;SDS011;41155;39.768;2.712;2023-05-07T05:43:12;13.73;;;6.00;;
55290;SDS011;41155;39.768;2.712;2023-05-07T05:45:38;18.45;;;5.55;;
55290;SDS011;41155;39.768;2.712;2023-05-07T05:48:04;12.40;;;5.18;;
55290;SDS011;41155;39.768;2.712;2023-05-07T05:50:29;5.18;;;4.63;;
55290;SDS011;41155;39.768;2.712;2023-05-07T05:52:55;17.45;;;6.13;;
55290;SDS011;41155;39.768;2.712;2023-05-07T05:55:21;8.57;;;6.53;;
55290;SDS011;41155;39.768;2.712;2023-05-07T05:57:47;23.08;;;7.07;;
55290;SDS011;41155;39.768;2.712;2023-05-07T06:00:13;18.60;;;7.72;;
55290;SDS011;41155;39.768;2.712;2023-05-07T06:02:38;14.63;;;7.55;;
55290;SDS011;41155;39.768;2.712;2023-05-07T06:05:04;18.27;;;7.15;;
55290;SDS011;41155;39.768;2.712;2023-05-07T06:07:30;16.67;;;9.15;;
55290;SDS011;41155;39.768;2.712;2023-05-07T06:09:55;16.42;;;11.15;;
55290;SDS011;41155;39.768;2.712;2023-05-07T06:12:21;19.48;;;11.13;;
55290;SDS011;41155;39.768;2.712;2023-05-07T06:14:46;13.45;;;11.98;;
55290;SDS011;41155;39.768;2.712;2023-05-07T06:17:12;17.23;;;14.40;;
55290;SDS011;41155;39.768;2.712;2023-05-07T06:19:37;16.00;;;9.68;;
55290;SDS011;41155;39.768;2.712;2023-05-07T06:22:03;12.80;;;6.45;;
55290;SDS011;41155;39.768;2.712;2023-05-07T06:24:28;12.18;;;7.00;;
55290;SDS011;41155;39.768;2.712;2023-05-07T06:26:54;21.10;;;11.82;;
55290;SDS011;41155;39.768;2.712;2023-05-07T06:29:20;13.82;;;9.93;;
55290;SDS011;41155;39.768;2.712;2023-05-07T06:31:45;14.45;;;8.70;;
55290;SDS011;41155;39.768;2.712;2023-05-07T06:34:11;26.58;;;8.85;;
55290;SDS011;41155;39.768;2.712;2023-05-07T06:36:39;17.80;;;8.85;;
55290;SDS011;41155;39.768;2.712;2023-05-07T06:39:05;20.55;;;8.57;;
55290;SDS011;41155;39.768;2.712;2023-05-07T06:41:31;11.60;;;7.07;;
55290;SDS011;41155;39.768;2.712;2023-05-07T06:43:56;11.63;;;7.13;;
55290;SDS011;41155;39.768;2.712;2023-05-07T06:46:22;11.50;;;6.40;;
55290;SDS011;41155;39.768;2.712;2023-05-07T06:48:47;12.98;;;6.88;;
55290;SDS011;41155;39.768;2.712;2023-05-07T06:51:13;13.43;;;6.40;;
55290;SDS011;41155;39.768;2.712;2023-05-07T06:53:38;17.27;;;6.57;;
55290;SDS011;41155;39.768;2.712;2023-05-07T06:56:04;9.13;;;6.53;;
55290;SDS011;41155;39.768;2.712;2023-05-07T06:58:30;6.55;;;5.65;;
55290;SDS011;41155;39.768;2.712;2023-05-07T07:00:55;4.75;;;4.35;;
55290;SDS011;41155;39.768;2.712;2023-05-07T07:03:21;5.38;;;4.88;;
55290;SDS011;41155;39.768;2.712;2023-05-07T07:05:46;9.63;;;4.40;;
55290;SDS011;41155;39.768;2.712;2023-05-07T07:08:11;8.38;;;4.28;;
55290;SDS011;41155;39.768;2.712;2023-05-07T07:10:37;6.85;;;4.00;;
55290;SDS011;41155;39.768;2.712;2023-05-07T07:13:02;3.97;;;3.58;;
55290;SDS011;41155;39.768;2.712;2023-05-07T07:15:28;5.88;;;3.65;;
55290;SDS011;41155;39.768;2.712;2023-05-07T07:17:53;4.07;;;3.78;;
55290;SDS011;41155;39.768;2.712;2023-05-07T07:20:19;6.30;;;3.10;;
55290;SDS011;41155;39.768;2.712;2023-05-07T07:22:44;3.60;;;3.30;;
55290;SDS011;41155;39.768;2.712;2023-05-07T07:25:10;3.95;;;3.60;;
55290;SDS011;41155;39.768;2.712;2023-05-07T07:27:37;6.03;;;3.92;;
55290;SDS011;41155;39.768;2.712;2023-05-07T07:30:02;4.75;;;3.65;;
55290;SDS011;41155;39.768;2.712;2023-05-07T07:32:28;3.10;;;3.00;;
55290;SDS011;41155;39.768;2.712;2023-05-07T07:34:54;7.55;;;4.10;;
55290;SDS011;41155;39.768;2.712;2023-05-07T07:37:19;12.13;;;3.53;;
55290;SDS011;41155;39.768;2.712;2023-05-07T07:39:45;3.42;;;3.05;;
55290;SDS011;41155;39.768;2.712;2023-05-07T07:42:10;4.95;;;3.03;;
55290;SDS011;41155;39.768;2.712;2023-05-07T07:44:36;9.93;;;3.53;;
55290;SDS011;41155;39.768;2.712;2023-05-07T07:47:01;3.55;;;3.08;;
55290;SDS011;41155;39.768;2.712;2023-05-07T07:49:26;3.90;;;2.88;;
55290;SDS011;41155;39.768;2.712;2023-05-07T07:51:52;5.30;;;3.10;;
55290;SDS011;41155;39.768;2.712;2023-05-07T07:54:17;8.05;;;4.07;;
55290;SDS011;41155;39.768;2.712;2023-05-07T07:56:43;4.18;;;3.75;;
55290;SDS011;41155;39.768;2.712;2023-05-07T07:59:08;4.53;;;4.13;;
55290;SDS011;41155;39.768;2.712;2023-05-07T08:01:34;5.97;;;2.65;;
55290;SDS011;41155;39.768;2.712;2023-05-07T08:04:00;4.55;;;3.03;;
55290;SDS011;41155;39.768;2.712;2023-05-07T08:06:28;3.88;;;3.28;;
55290;SDS011;41155;39.768;2.712;2023-05-07T08:08:53;2.95;;;2.75;;
55290;SDS011;41155;39.768;2.712;2023-05-07T08:11:19;5.93;;;3.05;;
55290;SDS011;41155;39.768;2.712;2023-05-07T08:13:46;6.32;;;4.45;;
55290;SDS011;41155;39.768;2.712;2023-05-07T08:16:12;6.30;;;4.78;;
55290;SDS011;41155;39.768;2.712;2023-05-07T08:18:37;10.93;;;7.25;;
55290;SDS011;41155;39.768;2.712;2023-05-07T08:21:03;14.52;;;5.50;;
55290;SDS011;41155;39.768;2.712;2023-05-07T08:23:28;15.88;;;7.38;;
55290;SDS011;41155;39.768;2.712;2023-05-07T08:25:54;15.50;;;12.52;;
55290;SDS011;41155;39.768;2.712;2023-05-07T08:28:20;19.67;;;15.20;;
55290;SDS011;41155;39.768;2.712;2023-05-07T08:30:46;38.60;;;31.55;;
55290;SDS011;41155;39.768;2.712;2023-05-07T08:33:12;16.88;;;13.43;;
55290;SDS011;41155;39.768;2.712;2023-05-07T08:35:37;9.80;;;8.77;;
55290;SDS011;41155;39.768;2.712;2023-05-07T08:38:03;22.35;;;9.13;;
55290;SDS011;41155;39.768;2.712;2023-05-07T08:40:28;5.38;;;4.72;;
55290;SDS011;41155;39.768;2.712;2023-05-07T08:42:59;6.57;;;4.72;;
55290;SDS011;41155;39.768;2.712;2023-05-07T08:45:27;5.63;;;3.22;;
55290;SDS011;41155;39.768;2.712;2023-05-07T08:47:55;3.28;;;3.00;;
55290;SDS011;41155;39.768;2.712;2023-05-07T08:50:24;3.88;;;3.47;;
55290;SDS011;41155;39.768;2.712;2023-05-07T08:52:50;6.70;;;3.00;;
55290;SDS011;41155;39.768;2.712;2023-05-07T08:55:15;9.13;;;2.65;;
55290;SDS011;41155;39.768;2.712;2023-05-07T08:57:42;2.75;;;2.55;;
55290;SDS011;41155;39.768;2.712;2023-05-07T09:00:07;2.72;;;2.53;;
55290;SDS011;41155;39.768;2.712;2023-05-07T09:02:35;2.65;;;2.25;;
55290;SDS011;41155;39.768;2.712;2023-05-07T09:05:01;3.58;;;2.10;;
55290;SDS011;41155;39.768;2.712;2023-05-07T09:07:27;2.72;;;2.53;;
55290;SDS011;41155;39.768;2.712;2023-05-07T09:09:52;2.60;;;2.40;;
55290;SDS011;41155;39.768;2.712;2023-05-07T09:12:20;7.78;;;2.83;;
55290;SDS011;41155;39.768;2.712;2023-05-07T09:14:46;3.70;;;2.50;;
55290;SDS011;41155;39.768;2.712;2023-05-07T09:17:12;3.50;;;2.17;;
55290;SDS011;41155;39.768;2.712;2023-05-07T09:19:38;8.73;;;2.80;;
55290;SDS011;41155;39.768;2.712;2023-05-07T09:22:04;14.68;;;5.65;;
55290;SDS011;41155;39.768;2.712;2023-05-07T09:24:32;13.10;;;4.88;;
55290;SDS011;41155;39.768;2.712;2023-05-07T09:27:06;14.35;;;4.55;;
55290;SDS011;41155;39.768;2.712;2023-05-07T09:29:33;9.52;;;4.20;;
55290;SDS011;41155;39.768;2.712;2023-05-07T09:32:07;4.20;;;3.03;;
55290;SDS011;41155;39.768;2.712;2023-05-07T09:34:33;5.78;;;3.00;;
55290;SDS011;41155;39.768;2.712;2023-05-07T09:37:03;10.48;;;3.25;;
55290;SDS011;41155;39.768;2.712;2023-05-07T09:39:46;5.38;;;3.47;;
55290;SDS011;41155;39.768;2.712;2023-05-07T09:42:14;4.70;;;3.33;;
55290;SDS011;41155;39.768;2.712;2023-05-07T09:44:40;9.50;;;3.47;;
55290;SDS011;41155;39.768;2.712;2023-05-07T09:47:08;5.90;;;3.50;;
55290;SDS011;41155;39.768;2.712;2023-05-07T09:49:35;7.32;;;3.95;;
55290;SDS011;41155;39.768;2.712;2023-05-07T09:52:03;6.40;;;3.38;;
55290;SDS011;41155;39.768;2.712;2023-05-07T09:54:32;11.82;;;3.83;;
55290;SDS011;41155;39.768;2.712;2023-05-07T09:56:58;10.90;;;4.82;;
55290;SDS011;41155;39.768;2.712;2023-05-07T09:59:27;7.70;;;4.00;;
55290;SDS011;41155;39.768;2.712;2023-05-07T10:01:56;14.43;;;4.10;;
55290;SDS011;41155;39.768;2.712;2023-05-07T10:04:23;7.47;;;3.40;;
55290;SDS011;41155;39.768;2.712;2023-05-07T10:06:51;10.93;;;3.90;;
55290;SDS011;41155;39.768;2.712;2023-05-07T10:09:16;11.60;;;4.18;;
55290;SDS011;41155;39.768;2.712;2023-05-07T10:11:43;13.57;;;4.25;;
55290;SDS011;41155;39.768;2.712;2023-05-07T10:14:09;7.07;;;4.05;;
55290;SDS011;41155;39.768;2.712;2023-05-07T10:16:35;11.80;;;4.45;;
55290;SDS011;41155;39.768;2.712;2023-05-07T10:19:05;9.93;;;4.30;;
55290;SDS011;41155;39.768;2.712;2023-05-07T10:22:17;10.63;;;4.63;;
55290;SDS011;41155;39.768;2.712;2023-05-07T10:24:24;12.27;;;4.93;;
55290;SDS011;41155;39.768;2.712;2023-05-07T10:26:52;18.42;;;5.57;;
55290;SDS011;41155;39.768;2.712;2023-05-07T10:31:56;10.00;;;4.05;;
55290;SDS011;41155;39.768;2.712;2023-05-07T10:34:29;14.90;;;4.68;;
55290;SDS011;41155;39.768;2.712;2023-05-07T10:37:00;10.60;;;4.25;;
55290;SDS011;41155;39.768;2.712;2023-05-07T10:39:26;12.05;;;4.35;;
55290;SDS011;41155;39.768;2.712;2023-05-07T10:41:52;14.00;;;4.80;;
55290;SDS011;41155;39.768;2.712;2023-05-07T10:47:07;9.88;;;3.80;;
55290;SDS011;41155;39.768;2.712;2023-05-07T10:54:45;6.43;;;3.65;;
55290;SDS011;41155;39.768;2.712;2023-05-07T11:00:48;12.38;;;4.07;;
55290;SDS011;41155;39.768;2.712;2023-05-07T11:05:26;10.98;;;4.63;;
55290;SDS011;41155;39.768;2.712;2023-05-07T11:07:54;10.05;;;3.90;;
55290;SDS011;41155;39.768;2.712;2023-05-07T11:10:21;9.70;;;3.92;;
55290;SDS011;41155;39.768;2.712;2023-05-07T11:15:13;11.20;;;5.32;;
55290;SDS011;41155;39.768;2.712;2023-05-07T11:17:58;19.02;;;5.65;;
55290;SDS011;41155;39.768;2.712;2023-05-07T11:26:08;13.60;;;4.72;;
55290;SDS011;41155;39.768;2.712;2023-05-07T11:28:39;14.70;;;7.25;;
55290;SDS011;41155;39.768;2.712;2023-05-07T11:31:07;11.65;;;5.07;;
55290;SDS011;41155;39.768;2.712;2023-05-07T11:33:33;13.77;;;4.07;;
55290;SDS011;41155;39.768;2.712;2023-05-07T11:35:59;6.85;;;3.60;;
55290;SDS011;41155;39.768;2.712;2023-05-07T11:38:26;13.85;;;4.40;;
55290;SDS011;41155;39.768;2.712;2023-05-07T11:40:57;12.70;;;3.70;;
55290;SDS011;41155;39.768;2.712;2023-05-07T11:43:26;6.30;;;3.88;;
55290;SDS011;41155;39.768;2.712;2023-05-07T11:45:52;10.90;;;4.28;;
55290;SDS011;41155;39.768;2.712;2023-05-07T11:48:18;10.32;;;3.88;;
55290;SDS011;41155;39.768;2.712;2023-05-07T11:53:27;8.73;;;3.65;;
55290;SDS011;41155;39.768;2.712;2023-05-07T11:56:00;8.32;;;3.88;;
55290;SDS011;41155;39.768;2.712;2023-05-07T11:58:25;9.70;;;3.75;;
55290;SDS011;41155;39.768;2.712;2023-05-07T12:00:53;8.60;;;3.90;;
55290;SDS011;41155;39.768;2.712;2023-05-07T12:03:19;5.63;;;3.90;;
55290;SDS011;41155;39.768;2.712;2023-05-07T12:05:46;8.85;;;3.67;;
55290;SDS011;41155;39.768;2.712;2023-05-07T12:08:16;7.68;;;4.32;;
55290;SDS011;41155;39.768;2.712;2023-05-07T12:10:43;8.57;;;3.40;;
55290;SDS011;41155;39.768;2.712;2023-05-07T12:13:16;8.85;;;4.15;;
55290;SDS011;41155;39.768;2.712;2023-05-07T12:15:42;16.33;;;4.35;;
55290;SDS011;41155;39.768;2.712;2023-05-07T12:18:08;10.27;;;3.63;;
55290;SDS011;41155;39.768;2.712;2023-05-07T12:20:35;8.68;;;3.50;;
55290;SDS011;41155;39.768;2.712;2023-05-07T12:23:01;9.35;;;3.63;;
55290;SDS011;41155;39.768;2.712;2023-05-07T12:25:38;6.45;;;3.45;;
55290;SDS011;41155;39.768;2.712;2023-05-07T12:28:05;14.65;;;4.95;;
55290;SDS011;41155;39.768;2.712;2023-05-07T12:30:37;12.55;;;4.05;;
55290;SDS011;41155;39.768;2.712;2023-05-07T12:33:04;9.73;;;4.18;;
55290;SDS011;41155;39.768;2.712;2023-05-07T12:35:30;18.40;;;4.47;;
55290;SDS011;41155;39.768;2.712;2023-05-07T12:37:57;12.90;;;3.67;;
55290;SDS011;41155;39.768;2.712;2023-05-07T12:40:34;14.13;;;4.75;;
55290;SDS011;41155;39.768;2.712;2023-05-07T12:43:04;7.40;;;3.50;;
55290;SDS011;41155;39.768;2.712;2023-05-07T12:45:29;14.02;;;4.45;;
55290;SDS011;41155;39.768;2.712;2023-05-07T12:47:55;12.32;;;4.60;;
55290;SDS011;41155;39.768;2.712;2023-05-07T12:50:21;8.90;;;4.00;;
55290;SDS011;41155;39.768;2.712;2023-05-07T12:52:47;6.38;;;3.92;;
55290;SDS011;41155;39.768;2.712;2023-05-07T12:55:16;7.05;;;3.20;;
55290;SDS011;41155;39.768;2.712;2023-05-07T12:57:45;4.50;;;3.25;;
55290;SDS011;41155;39.768;2.712;2023-05-07T13:00:14;9.65;;;3.55;;
55290;SDS011;41155;39.768;2.712;2023-05-07T13:02:40;5.47;;;3.95;;
55290;SDS011;41155;39.768;2.712;2023-05-07T13:05:09;8.25;;;3.70;;
55290;SDS011;41155;39.768;2.712;2023-05-07T13:07:35;14.10;;;4.30;;
55290;SDS011;41155;39.768;2.712;2023-05-07T13:10:02;6.32;;;3.28;;
55290;SDS011;41155;39.768;2.712;2023-05-07T13:12:28;9.18;;;3.97;;
55290;SDS011;41155;39.768;2.712;2023-05-07T13:14:53;7.13;;;3.75;;
55290;SDS011;41155;39.768;2.712;2023-05-07T13:17:19;13.20;;;4.45;;
55290;SDS011;41155;39.768;2.712;2023-05-07T13:19:44;7.72;;;3.65;;
55290;SDS011;41155;39.768;2.712;2023-05-07T13:22:10;6.78;;;4.18;;
55290;SDS011;41155;39.768;2.712;2023-05-07T13:24:35;8.68;;;3.80;;
55290;SDS011;41155;39.768;2.712;2023-05-07T13:27:04;5.72;;;4.20;;
55290;SDS011;41155;39.768;2.712;2023-05-07T13:29:29;5.70;;;3.53;;
55290;SDS011;41155;39.768;2.712;2023-05-07T13:31:58;9.98;;;3.78;;
55290;SDS011;41155;39.768;2.712;2023-05-07T13:34:23;30.77;;;4.95;;
55290;SDS011;41155;39.768;2.712;2023-05-07T13:36:49;8.50;;;3.42;;
55290;SDS011;41155;39.768;2.712;2023-05-07T13:39:15;10.30;;;4.25;;
55290;SDS011;41155;39.768;2.712;2023-05-07T13:41:40;10.02;;;3.10;;
55290;SDS011;41155;39.768;2.712;2023-05-07T13:44:06;16.05;;;3.70;;
55290;SDS011;41155;39.768;2.712;2023-05-07T13:46:31;18.00;;;4.18;;
55290;SDS011;41155;39.768;2.712;2023-05-07T13:48:57;10.23;;;4.55;;
55290;SDS011;41155;39.768;2.712;2023-05-07T13:51:22;5.18;;;3.53;;
55290;SDS011;41155;39.768;2.712;2023-05-07T13:53:48;4.65;;;2.80;;
55290;SDS011;41155;39.768;2.712;2023-05-07T13:56:14;7.68;;;3.30;;
55290;SDS011;41155;39.768;2.712;2023-05-07T13:58:39;6.57;;;3.20;;
55290;SDS011;41155;39.768;2.712;2023-05-07T14:01:05;5.63;;;3.03;;
55290;SDS011;41155;39.768;2.712;2023-05-07T14:03:31;6.00;;;3.17;;
55290;SDS011;41155;39.768;2.712;2023-05-07T14:05:58;5.82;;;3.10;;
55290;SDS011;41155;39.768;2.712;2023-05-07T14:08:25;8.77;;;4.20;;
55290;SDS011;41155;39.768;2.712;2023-05-07T14:10:50;14.23;;;3.40;;
55290;SDS011;41155;39.768;2.712;2023-05-07T14:13:16;6.25;;;3.00;;
55290;SDS011;41155;39.768;2.712;2023-05-07T14:15:42;3.72;;;2.83;;
55290;SDS011;41155;39.768;2.712;2023-05-07T14:18:11;6.00;;;3.25;;
55290;SDS011;41155;39.768;2.712;2023-05-07T14:20:37;11.10;;;3.50;;
55290;SDS011;41155;39.768;2.712;2023-05-07T14:23:03;4.88;;;2.95;;
55290;SDS011;41155;39.768;2.712;2023-05-07T14:25:28;7.50;;;3.28;;
55290;SDS011;41155;39.768;2.712;2023-05-07T14:27:54;10.82;;;3.45;;
55290;SDS011;41155;39.768;2.712;2023-05-07T14:30:19;14.32;;;3.55;;
55290;SDS011;41155;39.768;2.712;2023-05-07T14:32:45;13.55;;;3.63;;
55290;SDS011;41155;39.768;2.712;2023-05-07T14:35:10;8.65;;;3.45;;
55290;SDS011;41155;39.768;2.712;2023-05-07T14:37:35;12.65;;;3.80;;
55290;SDS011;41155;39.768;2.712;2023-05-07T14:40:01;11.98;;;3.78;;
55290;SDS011;41155;39.768;2.712;2023-05-07T14:42:27;5.68;;;3.03;;
55290;SDS011;41155;39.768;2.712;2023-05-07T14:44:52;9.23;;;3.42;;
55290;SDS011;41155;39.768;2.712;2023-05-07T14:47:18;8.30;;;3.33;;
55290;SDS011;41155;39.768;2.712;2023-05-07T14:49:43;5.57;;;3.40;;
55290;SDS011;41155;39.768;2.712;2023-05-07T14:52:09;8.98;;;3.45;;
55290;SDS011;41155;39.768;2.712;2023-05-07T14:54:35;11.20;;;3.80;;
55290;SDS011;41155;39.768;2.712;2023-05-07T14:57:02;7.25;;;3.85;;
55290;SDS011;41155;39.768;2.712;2023-05-07T14:59:27;9.88;;;3.25;;
55290;SDS011;41155;39.768;2.712;2023-05-07T15:01:53;8.85;;;3.78;;
55290;SDS011;41155;39.768;2.712;2023-05-07T15:04:19;8.68;;;3.65;;
55290;SDS011;41155;39.768;2.712;2023-05-07T15:06:44;7.13;;;3.58;;